createdAt,value
2022-10-10T00:01:37.177Z,99907.18
2022-10-10T00:04:05.186Z,99905.79
2022-10-10T00:06:33.568Z,99901.63
2022-10-10T00:09:02.391Z,99898.00
2022-10-10T00:11:29.991Z,99895.76
2022-10-10T00:13:57.324Z,99891.59
2022-10-10T00:16:24.604Z,99890.91
2022-10-10T00:18:52.847Z,99887.80
2022-10-10T00:21:19.244Z,99883.77
2022-10-10T00:23:46.512Z,99884.31
2022-10-10T00:26:18.554Z,99883.29
2022-10-10T00:28:52.168Z,99874.89
2022-10-10T00:31:18.697Z,99866.11
2022-10-10T00:33:45.998Z,99862.77
2022-10-10T00:36:14.077Z,99863.27
2022-10-10T00:38:41.709Z,99854.88
2022-10-10T00:41:10.040Z,99852.21
2022-10-10T00:43:37.536Z,99850.06
2022-10-10T00:46:04.425Z,99852.98
2022-10-10T00:48:40.467Z,99848.58
2022-10-10T00:51:16.318Z,99846.64
2022-10-10T00:54:01.789Z,99846.08
2022-10-10T00:56:35.598Z,99844.67
2022-10-10T00:59:05.796Z,99840.83
2022-10-10T01:01:32.761Z,99834.35
2022-10-10T01:04:01.555Z,99827.51
2022-10-10T01:06:28.993Z,99830.09
2022-10-10T01:08:57.823Z,99826.91
2022-10-10T01:11:41.886Z,99822.69
2022-10-10T01:14:25.141Z,99814.80
2022-10-10T01:17:12.308Z,99813.20
2022-10-10T01:20:23.134Z,99811.77
2022-10-10T01:23:11.208Z,99809.63
2022-10-10T01:26:09.671Z,99809.77
2022-10-10T01:29:06.087Z,99804.98
2022-10-10T01:31:37.748Z,99803.38
2022-10-10T01:34:30.389Z,99794.59
2022-10-10T01:37:04.710Z,99793.86
2022-10-10T01:39:39.051Z,99790.19
2022-10-10T01:42:43.433Z,99796.48
2022-10-10T01:45:11.194Z,99792.80
2022-10-10T01:47:38.610Z,99788.46
2022-10-10T01:50:11.070Z,99785.66
2022-10-10T01:53:02.978Z,99787.05
2022-10-10T01:55:45.969Z,99783.89
2022-10-10T01:58:41.676Z,99777.80
2022-10-10T02:01:23.157Z,99773.45
2022-10-10T02:03:58.853Z,99773.27
2022-10-10T02:06:35.353Z,99773.64
2022-10-10T02:09:06.840Z,99766.30
2022-10-10T02:11:37.641Z,99764.71
2022-10-10T02:14:15.331Z,99765.11
2022-10-10T02:16:46.261Z,99763.20
2022-10-10T02:19:18.292Z,99759.55
2022-10-10T02:21:47.020Z,99757.48
2022-10-10T02:24:19.231Z,99751.40
2022-10-10T02:26:53.301Z,99749.70
2022-10-10T02:29:22.152Z,99745.57
2022-10-10T02:31:58.210Z,99743.73
2022-10-10T02:34:35.157Z,99731.08
2022-10-10T02:37:07.217Z,99730.10
2022-10-10T02:39:38.261Z,99728.43
2022-10-10T02:42:07.577Z,99728.12
2022-10-10T02:44:36.733Z,99728.70
2022-10-10T02:47:03.686Z,99728.09
2022-10-10T02:49:34.232Z,99726.59
2022-10-10T02:52:03.113Z,99722.30
2022-10-10T02:54:29.899Z,99715.79
2022-10-10T02:56:58.375Z,99718.16
2022-10-10T02:59:25.898Z,99721.40
2022-10-10T03:01:52.469Z,99721.52
2022-10-10T03:04:20.778Z,99719.54
2022-10-10T03:06:47.181Z,99721.04
2022-10-10T03:09:18.141Z,99721.11
2022-10-10T03:11:47.088Z,99715.29
2022-10-10T03:14:14.206Z,99713.96
2022-10-10T03:16:44.620Z,99711.23
2022-10-10T03:19:11.411Z,99703.95
2022-10-10T03:21:37.945Z,99706.77
2022-10-10T03:24:05.378Z,99701.77
2022-10-10T03:26:33.121Z,99698.14
2022-10-10T03:29:02.708Z,99693.60
2022-10-10T03:31:30.538Z,99698.13
2022-10-10T03:33:57.345Z,99696.90
2022-10-10T03:36:25.659Z,99689.77
2022-10-10T03:38:52.760Z,99685.81
2022-10-10T03:41:19.200Z,99688.30
2022-10-10T03:43:45.995Z,99688.70
2022-10-10T03:46:16.204Z,99684.23
2022-10-10T03:48:47.293Z,99683.56
2022-10-10T03:51:15.622Z,99683.60
2022-10-10T03:53:42.717Z,99677.35
2022-10-10T03:56:09.259Z,99672.34
2022-10-10T03:58:35.696Z,99668.20
2022-10-10T04:01:05.165Z,99667.33
2022-10-10T04:03:35.088Z,99664.73
2022-10-10T04:06:02.277Z,99657.80
2022-10-10T04:08:30.114Z,99656.79
2022-10-10T04:10:57.045Z,99656.81
2022-10-10T04:13:26.816Z,99651.96
2022-10-10T04:15:55.169Z,99653.73
2022-10-10T04:18:23.532Z,99652.73
2022-10-10T04:20:51.247Z,99649.13
2022-10-10T04:23:20.982Z,99644.00
2022-10-10T04:25:52.822Z,99649.82
2022-10-10T04:28:20.697Z,99650.77
2022-10-10T04:30:47.390Z,99648.75
2022-10-10T04:33:13.960Z,99648.68
2022-10-10T04:35:41.839Z,99645.49
2022-10-10T04:38:08.836Z,99643.79
2022-10-10T04:40:37.292Z,99640.52
2022-10-10T04:43:04.260Z,99631.86
2022-10-10T04:45:35.230Z,99631.41
2022-10-10T04:48:04.730Z,99628.25
2022-10-10T04:50:33.212Z,99625.77
2022-10-10T04:52:59.603Z,99621.84
2022-10-10T04:55:27.694Z,99622.40
2022-10-10T04:58:00.528Z,99620.85
2022-10-10T05:00:27.903Z,99619.41
2022-10-10T05:02:55.778Z,99616.02
2022-10-10T05:05:23.690Z,99610.89
2022-10-10T05:07:55.173Z,99603.85
2022-10-10T05:10:23.402Z,99603.66
2022-10-10T05:12:51.963Z,99605.88
2022-10-10T05:15:19.066Z,99604.23
2022-10-10T05:17:46.920Z,99605.66
2022-10-10T05:20:13.688Z,99605.68
2022-10-10T05:22:41.681Z,99605.54
2022-10-10T05:25:08.599Z,99603.44
2022-10-10T05:27:35.039Z,99599.00
2022-10-10T05:30:04.945Z,99598.19
2022-10-10T05:32:37.712Z,99597.68
2022-10-10T05:35:08.828Z,99597.01
2022-10-10T05:37:38.068Z,99586.86
2022-10-10T05:40:06.135Z,99591.27
2022-10-10T05:42:44.653Z,99585.95
2022-10-10T05:45:11.874Z,99586.74
2022-10-10T05:47:39.900Z,99581.53
2022-10-10T05:50:16.148Z,99585.19
2022-10-10T05:52:43.215Z,99576.45
2022-10-10T05:55:17.270Z,99580.08
2022-10-10T05:57:44.352Z,99578.67
2022-10-10T06:00:11.477Z,99573.63
2022-10-10T06:02:41.192Z,99576.98
2022-10-10T06:05:11.105Z,99575.21
2022-10-10T06:08:02.455Z,99566.63
2022-10-10T06:10:25.212Z,99568.99
2022-10-10T06:12:54.523Z,99567.80
2022-10-10T06:15:22.512Z,99565.54
2022-10-10T06:17:49.466Z,99565.52
2022-10-10T06:20:49.494Z,99562.51
2022-10-10T06:23:17.565Z,99562.85
2022-10-10T06:25:44.832Z,99554.29
2022-10-10T06:28:12.937Z,99555.81
2022-10-10T06:30:43.087Z,99552.25
2022-10-10T06:33:13.804Z,99554.84
2022-10-10T06:35:44.666Z,99551.35
2022-10-10T06:38:11.680Z,99551.90
2022-10-10T06:40:39.805Z,99545.55
2022-10-10T06:43:11.267Z,99544.59
2022-10-10T06:45:39.826Z,99540.15
2022-10-10T06:48:11.059Z,99537.85
2022-10-10T06:50:38.503Z,99535.00
2022-10-10T06:53:05.549Z,99536.94
2022-10-10T06:55:32.462Z,99534.51
2022-10-10T06:57:59.349Z,99536.60
2022-10-10T07:00:26.633Z,99536.15
2022-10-10T07:02:53.780Z,99540.27
2022-10-10T07:05:30.847Z,99533.97
2022-10-10T07:07:58.172Z,99532.30
2022-10-10T07:10:24.849Z,99530.16
2022-10-10T07:12:53.488Z,99531.75
2022-10-10T07:15:20.991Z,99528.05
2022-10-10T07:17:53.391Z,99524.10
2022-10-10T07:20:22.239Z,99526.76
2022-10-10T07:22:49.423Z,99527.79
2022-10-10T07:25:16.404Z,99521.95
2022-10-10T07:27:43.038Z,99521.98
2022-10-10T07:30:10.146Z,99519.73
2022-10-10T07:32:39.222Z,99521.75
2022-10-10T07:35:15.141Z,99517.54
2022-10-10T07:38:00.822Z,99514.16
2022-10-10T07:40:47.097Z,99507.95
2022-10-10T07:43:20.266Z,99506.05
2022-10-10T07:45:47.251Z,99501.69
2022-10-10T07:48:13.941Z,99500.27
2022-10-10T07:50:42.018Z,99496.39
2022-10-10T07:53:09.820Z,99500.02
2022-10-10T07:55:41.323Z,99495.69
2022-10-10T07:58:10.726Z,99493.61
2022-10-10T08:00:41.388Z,99494.25
2022-10-10T08:03:12.317Z,99491.98
2022-10-10T08:05:42.205Z,99487.20
2022-10-10T08:08:11.327Z,99487.65
2022-10-10T08:10:43.318Z,99482.90
2022-10-10T08:13:09.974Z,99480.30
2022-10-10T08:15:39.542Z,99481.90
2022-10-10T08:18:07.599Z,99481.46
2022-10-10T08:20:34.501Z,99477.52
2022-10-10T08:23:00.916Z,99474.64
2022-10-10T08:25:28.570Z,99472.70
2022-10-10T08:27:58.232Z,99467.92
2022-10-10T08:30:25.365Z,99464.50
2022-10-10T08:32:52.448Z,99459.33
2022-10-10T08:35:22.351Z,99461.09
2022-10-10T08:37:50.203Z,99459.48
2022-10-10T08:40:21.260Z,99454.12
2022-10-10T08:42:53.708Z,99453.79
2022-10-10T08:45:25.700Z,99447.87
2022-10-10T08:48:06.116Z,99444.64
2022-10-10T08:50:40.256Z,99446.54
2022-10-10T08:53:22.236Z,99442.98
2022-10-10T08:55:52.759Z,99440.26
2022-10-10T08:58:23.433Z,99436.77
2022-10-10T09:01:00.037Z,99432.45
2022-10-10T09:03:48.212Z,99428.69
2022-10-10T09:06:53.382Z,99425.69
2022-10-10T09:10:03.053Z,99427.19
2022-10-10T09:12:36.250Z,99422.20
2022-10-10T09:15:14.851Z,99420.36
2022-10-10T09:18:00.283Z,99420.69
2022-10-10T09:21:03.201Z,99420.61
2022-10-10T09:23:39.141Z,99416.22
2022-10-10T09:26:11.820Z,99415.54
2022-10-10T09:28:45.661Z,99407.92
2022-10-10T09:31:34.798Z,99406.40
2022-10-10T09:34:13.057Z,99405.81
2022-10-10T09:36:42.227Z,99402.45
2022-10-10T09:39:32.620Z,99403.17
2022-10-10T09:42:09.248Z,99397.33
2022-10-10T09:44:36.798Z,99394.32
2022-10-10T09:47:03.647Z,99391.35
2022-10-10T09:49:30.777Z,99390.25
2022-10-10T09:52:00.582Z,99392.39
2022-10-10T09:54:28.191Z,99392.50
2022-10-10T09:56:57.432Z,99396.56
2022-10-10T09:59:44.300Z,99393.33
2022-10-10T10:02:41.650Z,99389.31
2022-10-10T10:05:24.543Z,99386.02
2022-10-10T10:07:52.931Z,99386.42
2022-10-10T10:10:23.945Z,99383.22
2022-10-10T10:12:51.827Z,99378.89
2022-10-10T10:15:28.278Z,99375.79
2022-10-10T10:18:11.466Z,99368.36
2022-10-10T10:20:41.452Z,99367.13
2022-10-10T10:23:40.973Z,99361.48
2022-10-10T10:26:18.513Z,99360.32
2022-10-10T10:28:48.255Z,99360.80
2022-10-10T10:31:46.519Z,99360.65
2022-10-10T10:34:50.415Z,99359.52
2022-10-10T10:37:44.426Z,99365.19
2022-10-10T10:40:22.768Z,99366.48
2022-10-10T10:43:24.668Z,99366.81
2022-10-10T10:46:48.495Z,99365.60
2022-10-10T10:49:27.841Z,99358.90
2022-10-10T10:52:43.683Z,99356.89
2022-10-10T10:55:16.074Z,99355.48
2022-10-10T11:01:45.059Z,99349.87
2022-10-10T11:05:23.047Z,99340.78
2022-10-10T11:08:01.182Z,99337.36
2022-10-10T11:10:37.550Z,99333.00
2022-10-10T11:13:27.790Z,99333.23
2022-10-10T11:16:24.434Z,99327.59
2022-10-10T11:19:29.432Z,99326.60
2022-10-10T11:22:03.791Z,99326.89
2022-10-10T11:24:38.464Z,99322.45
2022-10-10T11:27:20.264Z,99318.05
2022-10-10T11:30:12.996Z,99316.60
2022-10-10T11:33:09.688Z,99316.10
2022-10-10T11:35:45.581Z,99312.88
2022-10-10T11:38:44.625Z,99309.36
2022-10-10T11:41:41.800Z,99305.98
2022-10-10T11:44:25.427Z,99300.78
2022-10-10T11:47:02.063Z,99297.58
2022-10-10T11:49:48.693Z,99295.90
2022-10-10T11:52:34.815Z,99289.42
2022-10-10T11:55:27.240Z,99279.61
2022-10-10T11:58:06.182Z,99277.23
2022-10-10T12:00:38.640Z,99269.30
2022-10-10T12:03:07.894Z,99263.10
2022-10-10T12:05:39.279Z,99264.84
2022-10-10T12:08:23.598Z,99267.34
2022-10-10T12:10:58.274Z,99263.59
2022-10-10T12:13:30.260Z,99265.40
2022-10-10T12:16:02.914Z,99263.90
2022-10-10T12:18:50.986Z,99261.23
2022-10-10T12:21:23.428Z,99252.82
2022-10-10T12:24:01.663Z,99250.16
2022-10-10T12:26:57.294Z,99245.78
2022-10-10T12:29:51.029Z,99240.36
2022-10-10T12:32:17.977Z,99244.80
2022-10-10T12:34:49.698Z,99249.58
2022-10-10T12:37:33.243Z,99246.13
2022-10-10T12:40:06.981Z,99243.57
2022-10-10T12:42:34.611Z,99237.16
2022-10-10T12:45:01.159Z,99239.27
2022-10-10T12:48:03.418Z,99243.45
2022-10-10T12:50:50.856Z,99241.23
2022-10-10T12:53:22.989Z,99244.20
2022-10-10T12:55:53.206Z,99247.93
2022-10-10T12:58:27.367Z,99252.33
2022-10-10T13:01:03.157Z,99250.03
2022-10-10T13:03:35.403Z,99244.83
2022-10-10T13:06:17.557Z,99245.67
2022-10-10T13:08:45.086Z,99238.70
2022-10-10T13:11:15.842Z,99240.62
2022-10-10T13:13:53.558Z,99236.70
2022-10-10T13:16:24.087Z,99229.40
2022-10-10T13:18:58.887Z,99224.10
2022-10-10T13:21:37.017Z,99220.62
2022-10-10T13:24:05.896Z,99219.55
2022-10-10T13:26:48.764Z,99226.12
2022-10-10T13:29:33.549Z,99231.55
2022-10-10T13:32:07.878Z,99233.06
2022-10-10T13:34:39.565Z,99238.16
2022-10-10T13:37:06.608Z,99235.65
2022-10-10T13:39:40.391Z,99237.65
2022-10-10T13:42:33.558Z,99237.51
2022-10-10T13:45:03.266Z,99231.96
2022-10-10T13:47:53.802Z,99225.17
2022-10-10T13:50:32.645Z,99224.92
2022-10-10T13:53:28.284Z,99225.61
2022-10-10T13:56:37.867Z,99224.80
2022-10-10T13:59:11.413Z,99227.70
2022-10-10T14:01:39.960Z,99226.73
2022-10-10T14:04:18.460Z,99228.92
2022-10-10T14:07:08.416Z,99228.02
2022-10-10T14:10:20.842Z,99216.61
2022-10-10T14:12:53.503Z,99218.55
2022-10-10T14:15:44.831Z,99213.41
2022-10-10T14:18:24.736Z,99208.45
2022-10-10T14:20:55.657Z,99205.52
2022-10-10T14:23:22.196Z,99204.08
2022-10-10T14:25:49.663Z,99194.94
2022-10-10T14:28:37.915Z,99198.45
2022-10-10T14:31:06.031Z,99202.71
2022-10-10T14:33:35.257Z,99206.04
2022-10-10T14:36:03.442Z,99208.30
2022-10-10T14:38:31.650Z,99213.98
2022-10-10T14:41:01.796Z,99206.39
2022-10-10T14:43:30.741Z,99201.79
2022-10-10T14:45:57.465Z,99196.86
2022-10-10T14:48:24.086Z,99192.91
2022-10-10T14:50:51.759Z,99188.90
2022-10-10T14:53:21.071Z,99187.27
2022-10-10T14:55:49.636Z,99186.65
2022-10-10T14:58:22.262Z,99184.63
2022-10-10T15:00:50.902Z,99184.73
2022-10-10T15:03:17.477Z,99183.40
2022-10-10T15:05:44.261Z,99184.23
2022-10-10T15:08:17.670Z,99180.21
2022-10-10T15:10:45.777Z,99186.90
2022-10-10T15:13:15.943Z,99189.05
2022-10-10T15:15:42.640Z,99186.15
2022-10-10T15:18:25.616Z,99185.28
2022-10-10T15:20:56.110Z,99181.08
2022-10-10T15:23:22.893Z,99183.90
2022-10-10T15:25:49.753Z,99184.11
2022-10-10T15:28:17.111Z,99179.90
2022-10-10T15:30:45.597Z,99178.64
2022-10-10T15:33:14.015Z,99172.30
2022-10-10T15:36:07.556Z,99177.27
2022-10-10T15:38:29.523Z,99181.01
2022-10-10T15:41:04.824Z,99183.47
2022-10-10T15:43:40.891Z,99185.48
2022-10-10T15:46:09.037Z,99184.29
2022-10-10T15:48:36.074Z,99182.31
2022-10-10T15:51:08.440Z,99182.94
2022-10-10T15:53:36.642Z,99185.16
2022-10-10T15:56:10.307Z,99184.23
2022-10-10T15:58:38.547Z,99181.64
2022-10-10T16:01:16.093Z,99180.27
2022-10-10T16:03:43.600Z,99180.98
2022-10-10T16:06:10.996Z,99177.45
2022-10-10T16:08:38.474Z,99178.96
2022-10-10T16:11:08.683Z,99182.48
2022-10-10T16:13:40.610Z,99183.33
2022-10-10T16:16:11.120Z,99187.55
2022-10-10T16:18:41.712Z,99193.02
2022-10-10T16:21:15.639Z,99197.79
2022-10-10T16:23:42.366Z,99192.92
2022-10-10T16:26:15.598Z,99192.36
2022-10-10T16:28:44.813Z,99196.39
2022-10-10T16:31:14.716Z,99195.44
2022-10-10T16:33:42.193Z,99198.86
2022-10-10T16:36:20.758Z,99198.30
2022-10-10T16:38:48.769Z,99197.45
2022-10-10T16:41:42.495Z,99200.10
2022-10-10T16:44:03.683Z,99203.33
2022-10-10T16:46:30.956Z,99204.00
2022-10-10T16:48:59.867Z,99202.65
2022-10-10T16:51:29.868Z,99211.53
2022-10-10T16:54:00.603Z,99211.74
2022-10-10T16:56:29.075Z,99212.83
2022-10-10T16:58:57.834Z,99216.75
2022-10-10T17:01:25.704Z,99215.36
2022-10-10T17:03:52.923Z,99215.96
2022-10-10T17:06:22.633Z,99214.92
2022-10-10T17:08:55.413Z,99209.84
2022-10-10T17:11:23.212Z,99211.33
2022-10-10T17:13:52.293Z,99213.68
2022-10-10T17:19:11.581Z,99217.60
2022-10-10T17:21:38.309Z,99219.00
2022-10-10T17:24:06.257Z,99225.10
2022-10-10T17:26:32.862Z,99226.29
2022-10-10T17:28:59.886Z,99227.96
2022-10-10T17:31:29.418Z,99226.27
2022-10-10T17:33:57.617Z,99225.29
2022-10-10T17:36:27.130Z,99224.73
2022-10-10T17:39:00.979Z,99225.37
2022-10-10T17:41:34.003Z,99223.10
2022-10-10T17:44:00.846Z,99226.33
2022-10-10T17:46:36.271Z,99230.10
2022-10-10T17:49:10.036Z,99229.63
2022-10-10T17:51:40.134Z,99227.86
2022-10-10T17:54:08.919Z,99228.23
2022-10-10T17:56:37.128Z,99230.85
2022-10-10T17:59:06.055Z,99230.45
2022-10-10T18:01:34.817Z,99232.20
2022-10-10T18:04:02.225Z,99233.58
2022-10-10T18:06:31.046Z,99230.41
2022-10-10T18:08:59.505Z,99230.75
2022-10-10T18:11:31.568Z,99233.29
2022-10-10T18:14:01.298Z,99234.02
2022-10-10T18:16:33.134Z,99236.36
2022-10-10T18:19:00.742Z,99237.04
2022-10-10T18:21:30.169Z,99237.95
2022-10-10T18:23:58.284Z,99238.65
2022-10-10T18:26:29.021Z,99243.42
2022-10-10T18:29:00.160Z,99240.77
2022-10-10T18:31:32.478Z,99239.19
2022-10-10T18:34:01.416Z,99242.16
2022-10-10T18:36:31.351Z,99239.67
2022-10-10T18:39:02.406Z,99242.29
2022-10-10T18:41:33.927Z,99239.60
2022-10-10T18:44:07.626Z,99236.54
2022-10-10T18:46:37.089Z,99239.88
2022-10-10T18:49:08.320Z,99243.73
2022-10-10T18:51:36.817Z,99243.19
2022-10-10T18:54:07.910Z,99241.74
2022-10-10T18:56:37.813Z,99238.73
2022-10-10T18:59:10.862Z,99239.16
2022-10-10T19:01:39.471Z,99241.30
2022-10-10T19:04:10.036Z,99240.48
2022-10-10T19:07:09.793Z,99244.27
2022-10-10T19:09:40.660Z,99242.93
2022-10-10T19:12:09.043Z,99244.23
2022-10-10T19:14:37.733Z,99244.09
2022-10-10T19:17:11.496Z,99240.45
2022-10-10T19:19:38.798Z,99245.23
2022-10-10T19:22:05.875Z,99242.44
2022-10-10T19:24:33.635Z,99239.35
2022-10-10T19:27:01.827Z,99237.42
2022-10-10T19:29:30.324Z,99237.45
2022-10-10T19:31:58.062Z,99240.43
2022-10-10T19:34:28.317Z,99245.20
2022-10-10T19:36:58.350Z,99241.95
2022-10-10T19:39:26.214Z,99246.52
2022-10-10T19:41:53.282Z,99244.55
2022-10-10T19:44:25.134Z,99244.84
2022-10-10T19:46:54.378Z,99244.13
2022-10-10T19:49:22.665Z,99245.41
2022-10-10T19:51:50.081Z,99245.39
2022-10-10T19:54:18.031Z,99245.08
2022-10-10T19:56:45.749Z,99246.17
2022-10-10T19:59:14.004Z,99249.59
2022-10-10T20:01:41.554Z,99250.19
2022-10-10T20:04:08.248Z,99247.27
2022-10-10T20:06:38.511Z,99246.77
2022-10-10T20:09:10.669Z,99247.73
2022-10-10T20:11:39.092Z,99250.63
2022-10-10T20:14:07.263Z,99252.63
2022-10-10T20:16:34.829Z,99251.85
2022-10-10T20:19:03.435Z,99251.91
2022-10-10T20:21:33.378Z,99252.98
2022-10-10T20:24:07.233Z,99252.98
2022-10-10T20:26:37.444Z,99253.88
2022-10-10T20:29:07.299Z,99254.41
2022-10-10T20:31:36.554Z,99253.00
2022-10-10T20:34:13.156Z,99250.67
2022-10-10T20:36:41.341Z,99256.00
2022-10-10T20:39:13.032Z,99264.86
2022-10-10T20:41:44.142Z,99267.14
2022-10-10T20:44:13.157Z,99271.98
2022-10-10T20:46:56.187Z,99276.06
2022-10-10T20:49:26.398Z,99280.56
2022-10-10T20:51:53.444Z,99285.22
2022-10-10T20:54:22.844Z,99288.81
2022-10-10T20:56:51.529Z,99288.30
2022-10-10T20:59:20.708Z,99294.32
2022-10-10T21:01:47.547Z,99294.94
2022-10-10T21:04:21.530Z,99300.58
2022-10-10T21:06:50.820Z,99306.35
2022-10-10T21:09:23.519Z,99308.50
2022-10-10T21:11:51.581Z,99308.52
2022-10-10T21:14:20.368Z,99311.52
2022-10-10T21:16:50.407Z,99312.45
2022-10-10T21:19:17.287Z,99311.17
2022-10-10T21:21:43.844Z,99314.75
2022-10-10T21:24:11.063Z,99311.42
2022-10-10T21:26:42.064Z,99312.59
2022-10-10T21:29:14.248Z,99314.42
2022-10-10T21:31:42.466Z,99311.86
2022-10-10T21:34:15.220Z,99312.48
2022-10-10T21:36:42.296Z,99311.17
2022-10-10T21:39:10.818Z,99312.87
2022-10-10T21:41:39.127Z,99312.08
2022-10-10T21:44:09.226Z,99317.39
2022-10-10T21:46:38.422Z,99319.07
2022-10-10T21:49:08.082Z,99319.63
2022-10-10T21:51:38.561Z,99316.92
2022-10-10T21:54:06.588Z,99316.39
2022-10-10T21:56:33.718Z,99315.70
2022-10-10T21:59:01.674Z,99319.70
2022-10-10T22:01:32.418Z,99324.27
2022-10-10T22:03:59.992Z,99327.60
2022-10-10T22:06:30.045Z,99329.52
2022-10-10T22:08:58.900Z,99333.19
2022-10-10T22:11:33.780Z,99338.72
2022-10-10T22:14:03.603Z,99342.11
2022-10-10T22:16:34.371Z,99346.95
2022-10-10T22:19:02.130Z,99348.22
2022-10-10T22:21:32.124Z,99353.59
2022-10-10T22:24:06.497Z,99354.09
2022-10-10T22:26:36.103Z,99357.73
2022-10-10T22:29:05.447Z,99356.20
2022-10-10T22:31:50.766Z,99355.25
2022-10-10T22:34:18.026Z,99359.45
2022-10-10T22:36:44.801Z,99363.14
2022-10-10T22:39:12.161Z,99365.21
2022-10-10T22:41:40.595Z,99366.52
2022-10-10T22:44:10.849Z,99366.81
2022-10-10T22:46:42.925Z,99371.30
2022-10-10T22:49:16.192Z,99379.02
2022-10-10T22:51:46.782Z,99378.14
2022-10-10T22:54:14.842Z,99377.72
2022-10-10T22:56:42.308Z,99377.95
2022-10-10T22:59:11.784Z,99379.29
2022-10-10T23:01:40.082Z,99381.70
2022-10-10T23:04:09.906Z,99380.19
2022-10-10T23:06:37.400Z,99383.97
2022-10-10T23:09:05.896Z,99387.70
2022-10-10T23:11:33.190Z,99386.52
2022-10-10T23:14:00.608Z,99387.99
2022-10-10T23:16:29.257Z,99393.89
2022-10-10T23:18:57.634Z,99392.23
2022-10-10T23:21:24.633Z,99393.39
2022-10-10T23:23:52.541Z,99395.39
2022-10-10T23:26:19.892Z,99394.77
2022-10-10T23:28:49.753Z,99396.55
2022-10-10T23:31:18.742Z,99395.89
2022-10-10T23:33:46.991Z,99397.67
2022-10-10T23:36:15.403Z,99397.07
2022-10-10T23:38:43.876Z,99399.61
2022-10-10T23:41:11.922Z,99395.05
2022-10-10T23:43:39.151Z,99396.69
2022-10-10T23:46:07.648Z,99399.34
2022-10-10T23:48:35.198Z,99406.02
2022-10-10T23:51:02.718Z,99409.09
2022-10-10T23:53:29.753Z,99409.59
2022-10-10T23:55:57.244Z,99410.08
2022-10-10T23:58:24.315Z,99411.88
